createdAt,value
2022-10-10T00:02:06.757Z,100219.94
2022-10-10T00:04:34.886Z,100222.22
2022-10-10T00:07:02.877Z,100219.44
2022-10-10T00:09:32.270Z,100226.72
2022-10-10T00:12:00.341Z,100223.53
2022-10-10T00:14:31.629Z,100230.06
2022-10-10T00:17:00.631Z,100234.81
2022-10-10T00:19:28.751Z,100230.84
2022-10-10T00:21:56.912Z,100232.88
2022-10-10T00:24:24.917Z,100234.59
2022-10-10T00:26:54.303Z,100242.84
2022-10-10T00:29:22.259Z,100248.28
2022-10-10T00:31:50.304Z,100257.81
2022-10-10T00:34:18.295Z,100253.16
2022-10-10T00:36:46.300Z,100252.75
2022-10-10T00:39:14.317Z,100246.19
2022-10-10T00:41:42.307Z,100244.84
2022-10-10T00:44:13.909Z,100253.91
2022-10-10T00:46:42.789Z,100247.91
2022-10-10T00:49:14.414Z,100247.78
2022-10-10T00:51:43.407Z,100262.53
2022-10-10T00:54:14.131Z,100259.34
2022-10-10T00:56:49.460Z,100251.09
2022-10-10T00:59:21.186Z,100245.22
2022-10-10T01:01:49.213Z,100239.22
2022-10-10T01:04:34.487Z,100244.41
2022-10-10T01:07:04.369Z,100246.25
2022-10-10T01:09:33.615Z,100252.34
2022-10-10T01:12:13.499Z,100249.50
2022-10-10T01:14:49.265Z,100246.56
2022-10-10T01:17:24.076Z,100248.16
2022-10-10T01:20:29.960Z,100250.31
2022-10-10T01:23:18.196Z,100257.22
2022-10-10T01:26:03.483Z,100260.03
2022-10-10T01:28:40.509Z,100270.44
2022-10-10T01:31:11.848Z,100259.94
2022-10-10T01:33:49.990Z,100264.91
2022-10-10T01:36:23.626Z,100265.13
2022-10-10T01:38:57.096Z,100265.94
2022-10-10T01:41:29.181Z,100263.88
2022-10-10T01:43:59.786Z,100268.84
2022-10-10T01:46:28.007Z,100268.84
2022-10-10T01:48:58.951Z,100278.16
2022-10-10T01:51:50.545Z,100281.88
2022-10-10T01:54:35.034Z,100283.47
2022-10-10T01:57:19.848Z,100277.56
2022-10-10T02:00:00.946Z,100291.84
2022-10-10T02:02:40.869Z,100292.16
2022-10-10T02:05:18.697Z,100289.00
2022-10-10T02:07:52.485Z,100295.22
2022-10-10T02:10:25.272Z,100294.44
2022-10-10T02:12:53.895Z,100290.34
2022-10-10T02:15:26.920Z,100297.56
2022-10-10T02:17:55.780Z,100304.47
2022-10-10T02:20:27.430Z,100300.50
2022-10-10T02:22:56.921Z,100290.78
2022-10-10T02:25:29.273Z,100293.25
2022-10-10T02:28:07.665Z,100296.63
2022-10-10T02:30:42.853Z,100296.97
2022-10-10T02:33:13.030Z,100295.38
2022-10-10T02:35:44.204Z,100299.56
2022-10-10T02:38:15.726Z,100294.34
2022-10-10T02:40:47.387Z,100295.59
2022-10-10T02:43:16.578Z,100296.25
2022-10-10T02:45:46.473Z,100300.44
2022-10-10T02:48:14.541Z,100302.84
2022-10-10T02:50:42.877Z,100307.13
2022-10-10T02:53:10.825Z,100304.28
2022-10-10T02:55:38.854Z,100311.50
2022-10-10T02:58:06.856Z,100319.88
2022-10-10T03:00:34.898Z,100311.94
2022-10-10T03:03:04.781Z,100311.94
2022-10-10T03:05:32.796Z,100316.56
2022-10-10T03:08:00.797Z,100320.38
2022-10-10T03:10:28.828Z,100324.34
2022-10-10T03:12:56.902Z,100330.56
2022-10-10T03:15:24.871Z,100322.63
2022-10-10T03:17:52.827Z,100326.00
2022-10-10T03:20:22.297Z,100322.63
2022-10-10T03:22:50.518Z,100327.06
2022-10-10T03:25:18.894Z,100328.19
2022-10-10T03:27:46.882Z,100329.50
2022-10-10T03:30:15.178Z,100329.84
2022-10-10T03:32:43.285Z,100330.16
2022-10-10T03:35:11.297Z,100323.97
2022-10-10T03:37:40.646Z,100325.88
2022-10-10T03:40:09.297Z,100328.59
2022-10-10T03:42:37.438Z,100332.69
2022-10-10T03:45:06.670Z,100331.34
2022-10-10T03:47:34.644Z,100329.38
2022-10-10T03:50:02.682Z,100332.09
2022-10-10T03:52:30.702Z,100326.91
2022-10-10T03:55:00.186Z,100324.84
2022-10-10T03:57:28.298Z,100330.16
2022-10-10T03:59:56.317Z,100335.91
2022-10-10T04:02:24.353Z,100330.94
2022-10-10T04:04:53.296Z,100331.63
2022-10-10T04:07:21.408Z,100327.19
2022-10-10T04:09:49.619Z,100335.88
2022-10-10T04:12:19.628Z,100336.84
2022-10-10T04:14:47.719Z,100342.63
2022-10-10T04:17:15.844Z,100340.22
2022-10-10T04:19:44.111Z,100341.50
2022-10-10T04:22:12.501Z,100337.19
2022-10-10T04:24:41.308Z,100341.03
2022-10-10T04:27:09.419Z,100342.94
2022-10-10T04:29:38.941Z,100344.09
2022-10-10T04:32:07.622Z,100344.09
2022-10-10T04:34:35.729Z,100341.38
2022-10-10T04:37:05.103Z,100349.97
2022-10-10T04:39:33.239Z,100354.94
2022-10-10T04:42:01.425Z,100354.25
2022-10-10T04:44:29.726Z,100355.31
2022-10-10T04:46:59.133Z,100355.75
2022-10-10T04:49:27.318Z,100358.34
2022-10-10T04:51:55.307Z,100362.44
2022-10-10T04:54:23.288Z,100361.66
2022-10-10T04:56:51.318Z,100363.50
2022-10-10T04:59:20.513Z,100366.81
2022-10-10T05:01:48.524Z,100377.66
2022-10-10T05:04:17.927Z,100376.09
2022-10-10T05:06:46.335Z,100376.09
2022-10-10T05:09:14.509Z,100382.75
2022-10-10T05:11:43.004Z,100382.41
2022-10-10T05:14:10.988Z,100385.69
2022-10-10T05:16:38.975Z,100391.72
2022-10-10T05:19:06.990Z,100393.53
2022-10-10T05:21:36.528Z,100390.03
2022-10-10T05:24:04.891Z,100395.59
2022-10-10T05:26:32.889Z,100392.88
2022-10-10T05:29:01.763Z,100401.19
2022-10-10T05:31:29.888Z,100401.75
2022-10-10T05:33:58.084Z,100405.72
2022-10-10T05:36:26.091Z,100411.94
2022-10-10T05:38:55.479Z,100408.19
2022-10-10T05:41:23.520Z,100417.03
2022-10-10T05:43:51.485Z,100415.91
2022-10-10T05:46:20.522Z,100416.50
2022-10-10T05:48:48.610Z,100426.22
2022-10-10T05:51:16.635Z,100419.31
2022-10-10T05:53:45.142Z,100423.75
2022-10-10T05:56:16.898Z,100426.94
2022-10-10T05:58:45.275Z,100429.91
2022-10-10T06:01:13.301Z,100445.44
2022-10-10T06:03:41.350Z,100441.22
2022-10-10T06:06:09.391Z,100442.94
2022-10-10T06:08:37.626Z,100440.88
2022-10-10T06:11:08.141Z,100444.72
2022-10-10T06:13:38.945Z,100444.03
2022-10-10T06:16:07.212Z,100440.63
2022-10-10T06:18:35.240Z,100441.19
2022-10-10T06:21:04.176Z,100439.84
2022-10-10T06:23:32.181Z,100446.16
2022-10-10T06:26:00.485Z,100447.41
2022-10-10T06:28:28.603Z,100442.28
2022-10-10T06:31:01.029Z,100449.53
2022-10-10T06:33:29.230Z,100446.66
2022-10-10T06:35:57.242Z,100444.09
2022-10-10T06:38:25.508Z,100441.91
2022-10-10T06:40:54.790Z,100444.75
2022-10-10T06:43:25.500Z,100444.19
2022-10-10T06:45:53.462Z,100441.31
2022-10-10T06:48:22.905Z,100445.88
2022-10-10T06:50:58.913Z,100449.22
2022-10-10T06:53:28.035Z,100443.19
2022-10-10T06:55:56.693Z,100455.06
2022-10-10T06:58:26.311Z,100446.00
2022-10-10T07:00:55.710Z,100443.97
2022-10-10T07:03:26.084Z,100448.63
2022-10-10T07:05:55.830Z,100450.00
2022-10-10T07:08:24.613Z,100448.50
2022-10-10T07:10:52.692Z,100450.06
2022-10-10T07:13:21.346Z,100456.25
2022-10-10T07:15:50.035Z,100455.13
2022-10-10T07:18:20.023Z,100454.63
2022-10-10T07:20:49.923Z,100458.56
2022-10-10T07:23:18.378Z,100451.25
2022-10-10T07:25:46.509Z,100457.66
2022-10-10T07:28:14.566Z,100452.69
2022-10-10T07:30:44.031Z,100458.88
2022-10-10T07:33:12.652Z,100458.72
2022-10-10T07:35:41.344Z,100455.88
2022-10-10T07:38:12.049Z,100457.38
2022-10-10T07:40:41.446Z,100461.19
2022-10-10T07:43:09.539Z,100462.66
2022-10-10T07:45:37.980Z,100463.63
2022-10-10T07:48:06.593Z,100456.78
2022-10-10T07:50:34.612Z,100457.44
2022-10-10T07:53:02.923Z,100458.41
2022-10-10T07:55:32.499Z,100458.50
2022-10-10T07:58:03.138Z,100463.16
2022-10-10T08:00:31.197Z,100464.50
2022-10-10T08:02:59.212Z,100460.56
2022-10-10T08:05:27.546Z,100460.31
2022-10-10T08:07:55.912Z,100460.41
2022-10-10T08:10:24.177Z,100464.88
2022-10-10T08:12:53.558Z,100463.47
2022-10-10T08:15:21.907Z,100464.94
2022-10-10T08:17:50.188Z,100460.03
2022-10-10T08:20:18.590Z,100462.50
2022-10-10T08:22:46.589Z,100461.81
2022-10-10T08:25:14.900Z,100455.88
2022-10-10T08:27:43.576Z,100457.09
2022-10-10T08:30:14.070Z,100453.44
2022-10-10T08:32:42.106Z,100460.28
2022-10-10T08:35:10.383Z,100463.13
2022-10-10T08:37:38.813Z,100450.97
2022-10-10T08:40:08.406Z,100450.41
2022-10-10T08:42:47.111Z,100448.81
2022-10-10T08:45:21.507Z,100446.41
2022-10-10T08:47:54.285Z,100454.00
2022-10-10T08:50:26.527Z,100450.50
2022-10-10T08:52:58.938Z,100442.03
2022-10-10T08:55:33.547Z,100437.09
2022-10-10T08:58:07.467Z,100441.88
2022-10-10T09:00:41.218Z,100436.75
2022-10-10T09:03:21.667Z,100434.47
2022-10-10T09:06:05.165Z,100439.69
2022-10-10T09:08:46.450Z,100439.59
2022-10-10T09:11:29.465Z,100430.59
2022-10-10T09:14:09.800Z,100429.13
2022-10-10T09:16:48.365Z,100435.44
2022-10-10T09:19:30.698Z,100425.31
2022-10-10T09:22:04.686Z,100426.03
2022-10-10T09:24:41.210Z,100431.59
2022-10-10T09:27:16.393Z,100421.03
2022-10-10T09:29:50.622Z,100421.84
2022-10-10T09:32:24.199Z,100420.31
2022-10-10T09:34:56.416Z,100411.66
2022-10-10T09:37:46.246Z,100411.28
2022-10-10T09:40:23.300Z,100418.75
2022-10-10T09:42:51.762Z,100417.59
2022-10-10T09:45:22.348Z,100415.97
2022-10-10T09:47:55.119Z,100405.75
2022-10-10T09:50:24.389Z,100402.25
2022-10-10T09:52:53.603Z,100403.81
2022-10-10T09:55:27.063Z,100400.66
2022-10-10T09:57:59.863Z,100393.56
2022-10-10T10:00:34.596Z,100395.50
2022-10-10T10:03:12.978Z,100399.41
2022-10-10T10:05:43.245Z,100393.47
2022-10-10T10:08:24.086Z,100398.63
2022-10-10T10:10:52.289Z,100393.88
2022-10-10T10:13:25.543Z,100392.91
2022-10-10T10:15:59.943Z,100402.38
2022-10-10T10:18:30.325Z,100393.47
2022-10-10T10:21:15.226Z,100393.88
2022-10-10T10:23:45.376Z,100382.13
2022-10-10T10:26:19.853Z,100387.19
2022-10-10T10:28:49.551Z,100379.22
2022-10-10T10:31:42.663Z,100371.28
2022-10-10T10:34:40.879Z,100371.72
2022-10-10T10:37:19.123Z,100367.03
2022-10-10T10:40:18.158Z,100356.41
2022-10-10T10:43:01.253Z,100360.66
2022-10-10T10:45:38.585Z,100361.38
2022-10-10T10:48:18.484Z,100356.41
2022-10-10T10:50:53.875Z,100356.28
2022-10-10T10:53:32.278Z,100353.88
2022-10-10T10:56:10.352Z,100357.22
2022-10-10T10:59:30.215Z,100345.00
2022-10-10T11:02:00.970Z,100354.03
2022-10-10T11:05:18.961Z,100345.31
2022-10-10T11:07:54.697Z,100335.88
2022-10-10T11:10:30.486Z,100334.53
2022-10-10T11:13:07.953Z,100328.22
2022-10-10T11:16:06.203Z,100331.53
2022-10-10T11:18:34.744Z,100323.72
2022-10-10T11:21:08.011Z,100327.94
2022-10-10T11:23:44.078Z,100328.00
2022-10-10T11:26:17.957Z,100325.88
2022-10-10T11:28:51.871Z,100324.72
2022-10-10T11:31:25.675Z,100332.66
2022-10-10T11:33:58.789Z,100322.72
2022-10-10T11:36:31.510Z,100322.78
2022-10-10T11:39:04.662Z,100321.78
2022-10-10T11:41:38.336Z,100326.13
2022-10-10T11:44:13.718Z,100319.75
2022-10-10T11:46:44.845Z,100319.00
2022-10-10T11:49:21.140Z,100322.59
2022-10-10T11:52:32.457Z,100316.13
2022-10-10T11:55:07.946Z,100310.88
2022-10-10T11:57:42.473Z,100309.41
2022-10-10T12:00:16.057Z,100304.19
2022-10-10T12:02:46.007Z,100299.88
2022-10-10T12:05:23.340Z,100306.56
2022-10-10T12:08:08.679Z,100296.34
2022-10-10T12:10:43.730Z,100293.09
2022-10-10T12:13:26.696Z,100293.75
2022-10-10T12:15:57.960Z,100289.16
2022-10-10T12:18:29.414Z,100283.50
2022-10-10T12:21:09.553Z,100286.66
2022-10-10T12:23:38.737Z,100286.94
2022-10-10T12:26:08.281Z,100288.50
2022-10-10T12:28:38.809Z,100296.94
2022-10-10T12:31:30.396Z,100290.44
2022-10-10T12:34:17.851Z,100290.53
2022-10-10T12:36:59.068Z,100291.69
2022-10-10T12:39:38.601Z,100293.75
2022-10-10T12:42:33.427Z,100284.13
2022-10-10T12:45:02.024Z,100287.84
2022-10-10T12:48:04.057Z,100286.09
2022-10-10T12:50:34.612Z,100280.00
2022-10-10T12:53:05.536Z,100283.75
2022-10-10T12:55:42.838Z,100275.16
2022-10-10T12:58:26.620Z,100278.28
2022-10-10T13:00:57.506Z,100277.59
2022-10-10T13:03:32.425Z,100282.38
2022-10-10T13:06:06.564Z,100275.25
2022-10-10T13:08:38.839Z,100276.38
2022-10-10T13:11:11.416Z,100277.22
2022-10-10T13:13:42.907Z,100287.47
2022-10-10T13:16:15.443Z,100276.13
2022-10-10T13:18:50.034Z,100259.50
2022-10-10T13:21:22.788Z,100258.28
2022-10-10T13:26:46.782Z,100239.28
2022-10-10T13:29:24.668Z,100246.00
2022-10-10T13:31:54.232Z,100246.03
2022-10-10T13:34:27.360Z,100246.13
2022-10-10T13:36:58.317Z,100237.94
2022-10-10T13:39:27.687Z,100250.81
2022-10-10T13:41:56.558Z,100241.38
2022-10-10T13:44:31.643Z,100234.69
2022-10-10T13:47:00.032Z,100239.78
2022-10-10T13:49:29.682Z,100233.31
2022-10-10T13:52:03.551Z,100234.94
2022-10-10T13:54:39.555Z,100226.19
2022-10-10T13:57:14.567Z,100237.38
2022-10-10T13:59:45.383Z,100224.72
2022-10-10T14:02:16.795Z,100236.63
2022-10-10T14:04:51.021Z,100235.88
2022-10-10T14:07:22.993Z,100242.66
2022-10-10T14:09:55.854Z,100234.69
2022-10-10T14:12:29.373Z,100233.09
2022-10-10T14:15:00.246Z,100235.03
2022-10-10T14:17:29.643Z,100232.66
2022-10-10T14:19:58.031Z,100224.00
2022-10-10T14:22:26.840Z,100231.00
2022-10-10T14:24:54.830Z,100233.50
2022-10-10T14:27:25.598Z,100231.09
2022-10-10T14:29:54.825Z,100230.75
2022-10-10T14:32:25.190Z,100222.81
2022-10-10T14:34:53.201Z,100211.91
2022-10-10T14:37:24.810Z,100219.03
2022-10-10T14:39:53.202Z,100215.13
2022-10-10T14:42:22.801Z,100207.09
2022-10-10T14:44:50.945Z,100214.28
2022-10-10T14:47:22.265Z,100206.41
2022-10-10T14:49:52.856Z,100204.50
2022-10-10T14:52:20.925Z,100203.72
2022-10-10T14:54:49.786Z,100212.69
2022-10-10T14:57:22.434Z,100210.38
2022-10-10T14:59:50.497Z,100213.22
2022-10-10T15:02:20.826Z,100212.75
2022-10-10T15:04:49.489Z,100210.09
2022-10-10T15:07:19.741Z,100214.44
2022-10-10T15:10:27.552Z,100206.97
2022-10-10T15:12:41.574Z,100200.38
2022-10-10T15:15:11.298Z,100204.41
2022-10-10T15:17:39.380Z,100202.44
2022-10-10T15:20:10.987Z,100200.13
2022-10-10T15:22:41.173Z,100202.56
2022-10-10T15:25:10.427Z,100198.25
2022-10-10T15:27:39.670Z,100208.88
2022-10-10T15:30:09.186Z,100208.91
2022-10-10T15:32:40.190Z,100207.31
2022-10-10T15:35:09.102Z,100206.59
2022-10-10T15:37:37.198Z,100210.59
2022-10-10T15:40:07.788Z,100211.78
2022-10-10T15:42:35.841Z,100212.19
2022-10-10T15:45:03.999Z,100214.22
2022-10-10T15:47:32.466Z,100213.84
2022-10-10T15:50:01.353Z,100209.16
2022-10-10T15:52:29.443Z,100212.72
2022-10-10T15:54:57.751Z,100204.50
2022-10-10T15:57:27.422Z,100200.56
2022-10-10T15:59:56.011Z,100212.72
2022-10-10T16:02:24.298Z,100205.28
2022-10-10T16:04:52.418Z,100211.59
2022-10-10T16:07:28.165Z,100211.59
2022-10-10T16:09:58.077Z,100217.13
2022-10-10T16:12:27.603Z,100221.81
2022-10-10T16:14:56.667Z,100215.56
2022-10-10T16:17:24.741Z,100218.72
2022-10-10T16:19:52.839Z,100215.59
2022-10-10T16:22:21.881Z,100221.47
2022-10-10T16:25:04.056Z,100227.38
2022-10-10T16:27:43.185Z,100232.06
2022-10-10T16:30:12.325Z,100231.69
2022-10-10T16:32:42.587Z,100228.16
2022-10-10T16:35:11.897Z,100230.50
2022-10-10T16:37:41.348Z,100226.16
2022-10-10T16:40:10.519Z,100219.13
2022-10-10T16:42:40.148Z,100218.72
2022-10-10T16:45:09.403Z,100224.59
2022-10-10T16:47:38.239Z,100217.53
2022-10-10T16:50:08.620Z,100228.53
2022-10-10T16:52:38.403Z,100227.34
2022-10-10T16:55:07.967Z,100238.66
2022-10-10T16:57:36.709Z,100231.19
2022-10-10T17:00:08.743Z,100227.69
2022-10-10T17:02:38.984Z,100228.03
2022-10-10T17:05:07.978Z,100240.59
2022-10-10T17:07:36.827Z,100237.03
2022-10-10T17:10:05.903Z,100252.31
2022-10-10T17:12:34.002Z,100247.97
2022-10-10T17:15:02.217Z,100255.41
2022-10-10T17:17:31.847Z,100249.50
2022-10-10T17:19:59.949Z,100248.72
2022-10-10T17:22:28.016Z,100249.06
2022-10-10T17:24:56.197Z,100251.41
2022-10-10T17:27:25.252Z,100248.25
2022-10-10T17:29:54.116Z,100257.63
2022-10-10T17:32:22.843Z,100258.78
2022-10-10T17:34:53.649Z,100243.88
2022-10-10T17:37:22.331Z,100244.31
2022-10-10T17:39:50.499Z,100246.63
2022-10-10T17:42:18.808Z,100251.34
2022-10-10T17:44:51.451Z,100255.22
2022-10-10T17:47:22.934Z,100253.66
2022-10-10T17:49:54.783Z,100252.78
2022-10-10T17:52:24.889Z,100259.06
2022-10-10T17:54:52.930Z,100266.09
2022-10-10T17:57:21.589Z,100258.22
2022-10-10T17:59:49.970Z,100260.19
2022-10-10T18:02:19.857Z,100258.97
2022-10-10T18:04:48.601Z,100267.56
2022-10-10T18:07:19.133Z,100259.69
2022-10-10T18:09:49.045Z,100258.47
2022-10-10T18:12:17.490Z,100259.22
2022-10-10T18:14:45.629Z,100263.09
2022-10-10T18:17:14.286Z,100264.25
2022-10-10T18:19:42.543Z,100263.06
2022-10-10T18:22:11.916Z,100266.53
2022-10-10T18:24:41.505Z,100266.13
2022-10-10T18:27:09.549Z,100271.19
2022-10-10T18:29:38.341Z,100272.38
2022-10-10T18:32:06.853Z,100263.66
2022-10-10T18:34:34.965Z,100267.59
2022-10-10T18:37:02.973Z,100270.31
2022-10-10T18:39:33.282Z,100259.72
2022-10-10T18:42:03.138Z,100263.63
2022-10-10T18:44:31.431Z,100256.53
2022-10-10T18:46:59.487Z,100269.50
2022-10-10T18:49:27.830Z,100268.69
2022-10-10T18:51:56.410Z,100269.00
2022-10-10T18:54:28.037Z,100269.34
2022-10-10T18:56:56.153Z,100262.66
2022-10-10T18:59:26.433Z,100265.69
2022-10-10T19:01:54.503Z,100273.84
2022-10-10T19:04:23.259Z,100278.63
2022-10-10T19:06:57.062Z,100278.63
2022-10-10T19:09:26.912Z,100279.66
2022-10-10T19:11:55.234Z,100289.41
2022-10-10T19:14:23.625Z,100281.22
2022-10-10T19:16:53.813Z,100283.81
2022-10-10T19:19:22.868Z,100286.09
2022-10-10T19:21:51.868Z,100284.94
2022-10-10T19:24:21.491Z,100284.81
2022-10-10T19:26:53.532Z,100292.16
2022-10-10T19:29:22.347Z,100290.50
2022-10-10T19:31:53.006Z,100294.28
2022-10-10T19:34:21.219Z,100286.88
2022-10-10T19:36:50.203Z,100294.66
2022-10-10T19:39:18.199Z,100291.84
2022-10-10T19:41:46.189Z,100290.56
2022-10-10T19:44:14.334Z,100284.69
2022-10-10T19:46:42.381Z,100286.56
2022-10-10T19:49:13.016Z,100291.22
2022-10-10T19:51:41.125Z,100299.34
2022-10-10T19:54:09.509Z,100294.63
2022-10-10T19:56:39.722Z,100284.63
2022-10-10T19:59:07.805Z,100288.34
2022-10-10T20:01:35.994Z,100292.53
2022-10-10T20:04:04.303Z,100290.25
2022-10-10T20:06:33.725Z,100294.22
2022-10-10T20:09:01.704Z,100289.09
2022-10-10T20:11:29.967Z,100300.06
2022-10-10T20:13:58.650Z,100299.69
2022-10-10T20:16:27.865Z,100292.19
2022-10-10T20:18:57.597Z,100297.19
2022-10-10T20:21:31.793Z,100293.56
2022-10-10T20:24:03.141Z,100306.88
2022-10-10T20:26:32.583Z,100295.16
2022-10-10T20:29:01.245Z,100306.78
2022-10-10T20:31:30.926Z,100300.16
2022-10-10T20:34:01.890Z,100300.94
2022-10-10T20:36:31.574Z,100290.63
2022-10-10T20:39:02.813Z,100304.69
2022-10-10T20:41:33.395Z,100303.03
2022-10-10T20:44:04.533Z,100296.00
2022-10-10T20:46:35.876Z,100297.44
2022-10-10T20:49:06.914Z,100302.13
2022-10-10T20:51:35.658Z,100297.63
2022-10-10T20:54:07.763Z,100298.94
2022-10-10T20:56:37.063Z,100301.16
2022-10-10T20:59:05.337Z,100300.00
2022-10-10T21:01:33.396Z,100302.19
2022-10-10T21:04:02.174Z,100300.63
2022-10-10T21:06:33.159Z,100304.09
2022-10-10T21:09:03.021Z,100311.47
2022-10-10T21:11:32.718Z,100311.13
2022-10-10T21:14:02.176Z,100307.31
2022-10-10T21:16:32.899Z,100310.69
2022-10-10T21:19:01.327Z,100306.25
2022-10-10T21:21:31.038Z,100307.47
2022-10-10T21:23:59.568Z,100308.75
2022-10-10T21:26:29.302Z,100302.16
2022-10-10T21:29:02.234Z,100307.00
2022-10-10T21:31:32.134Z,100312.56
2022-10-10T21:34:00.770Z,100309.78
2022-10-10T21:36:28.790Z,100312.09
2022-10-10T21:38:57.256Z,100299.03
2022-10-10T21:41:25.402Z,100299.28
2022-10-10T21:43:55.900Z,100303.88
2022-10-10T21:46:29.148Z,100300.59
2022-10-10T21:48:59.475Z,100303.25
2022-10-10T21:51:27.447Z,100299.66
2022-10-10T21:53:57.797Z,100301.59
2022-10-10T21:56:26.543Z,100304.16
2022-10-10T21:58:58.858Z,100305.63
2022-10-10T22:01:33.355Z,100305.66
2022-10-10T22:04:02.462Z,100301.34
2022-10-10T22:06:30.901Z,100303.41
2022-10-10T22:09:01.550Z,100299.56
2022-10-10T22:11:31.463Z,100301.50
2022-10-10T22:14:02.382Z,100299.28
2022-10-10T22:16:32.908Z,100298.47
2022-10-10T22:19:01.010Z,100305.44
2022-10-10T22:21:32.092Z,100303.88
2022-10-10T22:24:01.604Z,100304.38
2022-10-10T22:26:30.493Z,100305.75
2022-10-10T22:28:58.889Z,100300.56
2022-10-10T22:31:27.086Z,100293.22
2022-10-10T22:33:56.401Z,100294.16
2022-10-10T22:36:24.408Z,100298.47
2022-10-10T22:38:52.344Z,100295.09
2022-10-10T22:41:20.357Z,100292.00
2022-10-10T22:43:49.768Z,100292.28
2022-10-10T22:46:17.891Z,100296.53
2022-10-10T22:48:46.034Z,100301.56
2022-10-10T22:51:17.660Z,100302.28
2022-10-10T22:53:46.858Z,100287.13
2022-10-10T22:56:16.435Z,100294.22
2022-10-10T22:58:45.022Z,100294.94
2022-10-10T23:01:18.490Z,100290.25
2022-10-10T23:03:46.675Z,100300.75
2022-10-10T23:06:16.490Z,100292.28
2022-10-10T23:08:44.646Z,100299.75
2022-10-10T23:11:12.683Z,100298.09
2022-10-10T23:13:40.725Z,100304.59
2022-10-10T23:16:09.342Z,100294.41
2022-10-10T23:18:37.423Z,100297.88
2022-10-10T23:21:05.396Z,100300.59
2022-10-10T23:23:34.974Z,100305.97
2022-10-10T23:26:07.462Z,100313.00
2022-10-10T23:28:36.920Z,100315.09
2022-10-10T23:31:08.620Z,100314.72
2022-10-10T23:33:37.634Z,100318.88
2022-10-10T23:36:08.763Z,100321.44
2022-10-10T23:38:38.481Z,100322.94
2022-10-10T23:41:06.972Z,100322.59
2022-10-10T23:43:35.290Z,100324.53
2022-10-10T23:46:03.887Z,100324.88
2022-10-10T23:48:32.435Z,100309.22
2022-10-10T23:51:00.445Z,100321.25
2022-10-10T23:53:28.508Z,100320.72
2022-10-10T23:55:58.069Z,100316.38
2022-10-10T23:58:26.118Z,100315.91
